createdAt,value
2023-04-25T00:00:42.153Z,5.50
2023-04-25T00:03:10.630Z,5.50
2023-04-25T00:05:40.923Z,5.50
2023-04-25T00:08:09.747Z,5.50
2023-04-25T00:10:38.430Z,5.40
2023-04-25T00:13:07.358Z,5.30
2023-04-25T00:15:37.213Z,5.30
2023-04-25T00:18:06.924Z,5.20
2023-04-25T00:20:36.116Z,5.10
2023-04-25T00:23:05.817Z,5.10
2023-04-25T00:25:34.239Z,5.10
2023-04-25T00:28:02.632Z,5.00
2023-04-25T00:30:31.070Z,5.10
2023-04-25T00:32:59.442Z,5.00
2023-04-25T00:35:29.305Z,5.00
2023-04-25T00:37:57.804Z,5.00
2023-04-25T00:40:27.811Z,5.00
2023-04-25T00:42:56.267Z,5.00
2023-04-25T00:45:29.192Z,5.00
2023-04-25T00:47:58.174Z,5.10
2023-04-25T00:50:26.718Z,5.10
2023-04-25T00:52:55.367Z,5.10
2023-04-25T00:55:23.851Z,5.20
2023-04-25T00:57:53.750Z,5.30
2023-04-25T01:00:22.662Z,5.40
2023-04-25T01:02:51.619Z,5.50
2023-04-25T01:05:20.953Z,5.50
2023-04-25T01:07:49.464Z,5.60
2023-04-25T01:10:18.107Z,5.60
2023-04-25T01:12:55.524Z,5.70
2023-04-25T01:15:25.409Z,5.70
2023-04-25T01:17:54.364Z,5.70
2023-04-25T01:20:24.208Z,5.70
2023-04-25T01:22:55.011Z,5.60
2023-04-25T01:25:24.819Z,5.60
2023-04-25T01:27:53.624Z,5.60
2023-04-25T01:30:21.987Z,5.60
2023-04-25T01:32:51.546Z,5.60
2023-04-25T01:35:19.850Z,5.60
2023-04-25T01:37:48.157Z,5.70
2023-04-25T01:40:18.495Z,5.70
2023-04-25T01:42:47.432Z,5.70
2023-04-25T01:45:16.231Z,5.70
2023-04-25T01:47:47.925Z,5.80
2023-04-25T01:50:16.461Z,5.70
2023-04-25T01:52:44.988Z,5.70
2023-04-25T01:55:13.696Z,5.60
2023-04-25T01:57:43.442Z,5.50
2023-04-25T02:00:13.099Z,5.30
2023-04-25T02:02:42.056Z,5.20
2023-04-25T02:05:10.788Z,5.00
2023-04-25T02:07:39.291Z,5.00
2023-04-25T02:10:08.402Z,4.90
2023-04-25T02:12:37.417Z,4.80
2023-04-25T02:15:08.699Z,4.70
2023-04-25T02:17:37.433Z,4.60
2023-04-25T02:20:06.751Z,4.40
2023-04-25T02:22:36.547Z,4.30
2023-04-25T02:25:06.330Z,4.20
2023-04-25T02:27:35.052Z,4.00
2023-04-25T02:30:04.414Z,4.00
2023-04-25T02:32:35.532Z,3.90
2023-04-25T02:35:05.652Z,3.90
2023-04-25T02:37:35.226Z,3.80
2023-04-25T02:40:04.421Z,3.80
2023-04-25T02:42:33.681Z,3.70
2023-04-25T02:45:02.191Z,3.50
2023-04-25T02:47:31.814Z,3.50
2023-04-25T02:50:17.422Z,3.50
2023-04-25T02:52:49.677Z,3.50
2023-04-25T02:55:18.432Z,3.50
2023-04-25T02:57:47.464Z,3.40
2023-04-25T03:00:18.785Z,3.40
2023-04-25T03:02:53.032Z,3.30
2023-04-25T03:06:05.542Z,3.20
2023-04-25T03:08:42.284Z,3.10
2023-04-25T03:11:12.008Z,3.00
2023-04-25T03:13:44.464Z,3.00
2023-04-25T03:16:13.886Z,2.90
2023-04-25T03:18:48.694Z,3.00
2023-04-25T03:21:27.271Z,3.00
2023-04-25T03:24:02.744Z,2.90
2023-04-25T03:32:44.632Z,2.90
2023-04-25T03:35:23.324Z,2.90
2023-04-25T03:40:42.147Z,3.20
2023-04-25T03:43:19.604Z,3.30
2023-04-25T03:45:54.638Z,3.20
2023-04-25T03:48:26.357Z,3.20
2023-04-25T03:51:00.822Z,3.20
2023-04-25T03:56:41.920Z,3.30
2023-04-25T03:59:16.236Z,3.30
2023-04-25T04:01:58.671Z,3.50
2023-04-25T04:04:32.111Z,3.50
2023-04-25T04:07:01.532Z,3.50
2023-04-25T04:09:39.233Z,3.50
2023-04-25T04:12:08.832Z,3.50
2023-04-25T04:14:38.365Z,3.50
2023-04-25T04:17:09.646Z,3.50
2023-04-25T04:19:46.013Z,3.50
2023-04-25T04:22:17.545Z,3.40
2023-04-25T04:27:44.850Z,3.50
2023-04-25T04:30:16.170Z,3.60
2023-04-25T04:32:45.985Z,3.60
2023-04-25T04:35:36.087Z,3.60
2023-04-25T04:38:04.806Z,3.80
2023-04-25T04:40:34.706Z,4.30
2023-04-25T04:43:03.212Z,5.00
2023-04-25T04:45:31.492Z,5.60
2023-04-25T04:47:59.809Z,6.10
2023-04-25T04:50:28.723Z,6.20
2023-04-25T04:52:56.961Z,6.10
2023-04-25T04:55:25.209Z,5.90
2023-04-25T04:57:54.971Z,5.60
2023-04-25T05:00:23.277Z,5.50
2023-04-25T05:02:51.750Z,5.30
2023-04-25T05:05:20.342Z,5.30
2023-04-25T05:07:48.613Z,5.30
2023-04-25T05:10:17.391Z,5.30
2023-04-25T05:12:47.400Z,5.30
2023-04-25T05:15:27.223Z,5.40
2023-04-25T05:17:55.784Z,5.50
2023-04-25T05:20:30.191Z,5.50
2023-04-25T05:23:01.068Z,5.60
2023-04-25T05:25:29.464Z,6.00
2023-04-25T05:28:00.936Z,6.20
2023-04-25T05:31:12.708Z,6.40
2023-04-25T05:33:41.285Z,6.60
2023-04-25T05:36:10.361Z,6.80
2023-04-25T05:38:38.607Z,6.90
2023-04-25T05:41:09.986Z,6.90
2023-04-25T05:43:38.254Z,6.90
2023-04-25T05:46:08.343Z,7.00
2023-04-25T05:48:39.943Z,7.10
2023-04-25T05:51:08.431Z,7.80
2023-04-25T05:53:36.737Z,8.60
2023-04-25T05:56:05.274Z,9.30
2023-04-25T05:58:33.746Z,9.90
2023-04-25T06:01:02.220Z,10.50
2023-04-25T06:03:32.464Z,11.00
2023-04-25T06:06:01.244Z,11.70
2023-04-25T06:08:29.600Z,12.00
2023-04-25T06:10:57.798Z,12.40
2023-04-25T06:13:26.052Z,13.00
2023-04-25T06:15:54.557Z,13.20
2023-04-25T06:18:22.835Z,12.70
2023-04-25T06:20:55.688Z,12.80
2023-04-25T06:23:23.983Z,12.80
2023-04-25T06:25:52.377Z,12.50
2023-04-25T06:28:23.065Z,12.60
2023-04-25T06:30:51.404Z,12.70
2023-04-25T06:33:19.666Z,12.70
2023-04-25T06:35:47.872Z,12.90
2023-04-25T06:38:17.893Z,12.90
2023-04-25T06:40:46.147Z,13.30
2023-04-25T06:43:14.399Z,13.30
2023-04-25T06:45:43.751Z,13.70
2023-04-25T06:48:12.694Z,13.70
2023-04-25T06:50:41.077Z,13.40
2023-04-25T06:53:09.856Z,13.30
2023-04-25T06:55:39.527Z,13.40
2023-04-25T06:58:08.176Z,13.50
2023-04-25T07:00:37.160Z,13.30
2023-04-25T07:03:06.309Z,13.30
2023-04-25T07:05:34.784Z,13.00
2023-04-25T07:08:04.056Z,13.20
2023-04-25T07:10:32.451Z,13.10
2023-04-25T07:13:02.113Z,12.80
2023-04-25T07:15:30.437Z,12.10
2023-04-25T07:17:58.768Z,11.30
2023-04-25T07:20:28.756Z,11.00
2023-04-25T07:22:57.029Z,10.80
2023-04-25T07:25:25.740Z,11.40
2023-04-25T07:27:53.997Z,12.30
2023-04-25T07:30:23.805Z,13.00
2023-04-25T07:32:52.683Z,13.80
2023-04-25T07:35:21.397Z,14.20
2023-04-25T07:37:49.673Z,14.50
2023-04-25T07:40:17.988Z,14.60
2023-04-25T07:42:46.322Z,15.10
2023-04-25T07:45:14.635Z,15.60
2023-04-25T07:47:44.953Z,15.10
2023-04-25T07:50:13.527Z,13.90
2023-04-25T07:52:41.825Z,12.90
2023-04-25T07:55:11.102Z,12.60
2023-04-25T07:57:39.391Z,13.40
2023-04-25T08:00:10.642Z,14.40
2023-04-25T08:02:39.494Z,14.90
2023-04-25T08:05:13.095Z,15.80
2023-04-25T08:07:41.709Z,14.80
2023-04-25T08:10:10.664Z,14.70
2023-04-25T08:12:38.858Z,15.10
2023-04-25T08:15:08.860Z,16.10
2023-04-25T08:17:37.457Z,16.60
2023-04-25T08:20:07.446Z,16.10
2023-04-25T08:22:37.271Z,14.90
2023-04-25T08:25:06.256Z,14.60
2023-04-25T08:27:34.513Z,14.50
2023-04-25T08:30:04.115Z,14.20
2023-04-25T08:32:32.468Z,14.10
2023-04-25T08:35:00.656Z,13.70
2023-04-25T08:37:28.908Z,13.60
2023-04-25T08:39:58.550Z,13.10
2023-04-25T08:42:29.115Z,12.50
2023-04-25T08:44:58.483Z,12.30
2023-04-25T08:47:28.655Z,12.50
2023-04-25T08:49:57.995Z,12.30
2023-04-25T08:52:29.844Z,12.00
2023-04-25T08:55:00.640Z,11.80
2023-04-25T08:57:29.880Z,11.50
2023-04-25T09:00:00.465Z,11.30
2023-04-25T09:02:29.068Z,11.10
2023-04-25T09:04:58.657Z,11.10
2023-04-25T09:07:26.946Z,11.00
2023-04-25T09:09:55.460Z,11.10
2023-04-25T09:12:25.456Z,11.40
2023-04-25T09:15:09.594Z,11.40
2023-04-25T09:17:41.398Z,11.10
2023-04-25T09:20:11.620Z,11.00
2023-04-25T09:22:40.741Z,11.90
2023-04-25T09:25:11.927Z,12.50
2023-04-25T09:27:53.435Z,12.40
2023-04-25T09:30:31.885Z,12.20
2023-04-25T09:33:06.043Z,11.90
2023-04-25T09:35:38.641Z,11.70
2023-04-25T09:38:11.444Z,11.30
2023-04-25T09:40:43.868Z,11.40
2023-04-25T09:43:21.804Z,12.40
2023-04-25T09:45:52.727Z,13.70
2023-04-25T09:48:22.065Z,13.70
2023-04-25T09:51:06.972Z,13.00
2023-04-25T09:53:36.463Z,12.20
2023-04-25T09:56:07.884Z,12.30
2023-04-25T09:58:38.609Z,12.80
2023-04-25T10:01:08.736Z,12.80
2023-04-25T10:03:40.659Z,12.50
2023-04-25T10:06:11.401Z,12.00
2023-04-25T10:08:40.435Z,11.50
2023-04-25T10:11:10.274Z,11.10
2023-04-25T10:13:42.670Z,10.80
2023-04-25T10:16:11.420Z,10.70
2023-04-25T10:18:40.031Z,10.70
2023-04-25T10:21:09.219Z,10.60
2023-04-25T10:23:39.679Z,10.50
2023-04-25T10:26:13.579Z,10.30
2023-04-25T10:29:02.590Z,10.20
2023-04-25T10:31:33.016Z,10.30
2023-04-25T10:34:02.746Z,10.60
2023-04-25T10:36:34.669Z,11.20
2023-04-25T10:39:09.027Z,12.30
2023-04-25T10:41:50.323Z,12.40
2023-04-25T10:44:21.014Z,12.30
2023-04-25T10:46:49.588Z,12.70
2023-04-25T10:49:34.890Z,12.30
2023-04-25T10:52:27.820Z,12.00
2023-04-25T10:54:57.716Z,11.60
2023-04-25T10:57:33.704Z,11.70
2023-04-25T11:00:10.172Z,11.80
2023-04-25T11:02:49.340Z,12.00
2023-04-25T11:05:25.361Z,11.60
2023-04-25T11:10:44.118Z,11.40
2023-04-25T11:13:12.436Z,11.70
2023-04-25T11:14:38.018Z,11.40
2023-04-25T11:15:42.102Z,12.00
2023-04-25T11:18:10.815Z,12.00
2023-04-25T11:20:39.276Z,11.80
2023-04-25T11:23:07.747Z,11.60
2023-04-25T11:25:38.472Z,11.50
2023-04-25T11:28:07.588Z,11.40
2023-04-25T11:30:37.365Z,11.10
2023-04-25T11:33:12.619Z,10.60
2023-04-25T11:35:43.274Z,10.30
2023-04-25T11:38:12.079Z,10.10
2023-04-25T11:40:40.757Z,10.00
2023-04-25T11:43:09.650Z,9.80
2023-04-25T11:45:39.651Z,9.70
2023-04-25T11:48:09.484Z,9.70
2023-04-25T11:50:37.907Z,9.90
2023-04-25T11:53:07.550Z,10.30
2023-04-25T11:55:37.143Z,10.50
2023-04-25T11:58:06.670Z,10.70
2023-04-25T12:00:35.285Z,10.70
2023-04-25T12:03:04.378Z,10.80
2023-04-25T12:05:36.048Z,10.80
2023-04-25T12:08:14.812Z,10.50
2023-04-25T12:10:44.746Z,10.50
2023-04-25T12:13:24.026Z,10.40
2023-04-25T12:15:52.851Z,10.50
2023-04-25T12:18:28.440Z,10.60
2023-04-25T12:20:58.520Z,10.60
2023-04-25T12:23:31.428Z,10.50
2023-04-25T12:26:04.285Z,10.30
2023-04-25T12:28:35.569Z,9.80
2023-04-25T12:31:05.626Z,9.40
2023-04-25T12:33:35.613Z,9.30
2023-04-25T12:36:10.345Z,9.30
2023-04-25T12:38:40.676Z,9.40
2023-04-25T12:41:13.549Z,9.40
2023-04-25T12:43:43.665Z,9.20
2023-04-25T12:46:12.836Z,9.10
2023-04-25T12:48:51.838Z,9.00
2023-04-25T12:51:26.390Z,8.80
2023-04-25T12:53:55.179Z,8.70
2023-04-25T12:56:26.815Z,8.80
2023-04-25T12:58:55.447Z,8.90
2023-04-25T13:01:24.230Z,9.00
2023-04-25T13:03:53.432Z,9.00
2023-04-25T13:06:23.075Z,9.10
2023-04-25T13:08:53.265Z,9.20
2023-04-25T13:11:22.252Z,9.30
2023-04-25T13:13:50.986Z,9.50
2023-04-25T13:16:21.867Z,9.60
2023-04-25T13:18:50.698Z,9.50
2023-04-25T13:21:19.064Z,9.50
2023-04-25T13:23:48.005Z,9.60
2023-04-25T13:26:18.212Z,9.60
2023-04-25T13:28:46.595Z,9.60
2023-04-25T13:31:15.141Z,9.70
2023-04-25T13:33:43.532Z,9.90
2023-04-25T13:36:12.079Z,10.20
2023-04-25T13:38:43.211Z,10.40
2023-04-25T13:41:12.417Z,10.50
2023-04-25T13:43:42.642Z,10.20
2023-04-25T13:46:29.957Z,9.80
2023-04-25T13:49:11.504Z,9.80
2023-04-25T13:51:41.340Z,10.10
2023-04-25T13:54:09.794Z,10.50
2023-04-25T13:56:38.069Z,10.70
2023-04-25T13:59:08.045Z,10.60
2023-04-25T14:01:36.757Z,10.40
2023-04-25T14:04:06.258Z,10.50
2023-04-25T14:06:34.879Z,10.50
2023-04-25T14:09:05.359Z,10.50
2023-04-25T14:11:33.901Z,10.40
2023-04-25T14:14:02.264Z,10.30
2023-04-25T14:16:32.721Z,10.20
2023-04-25T14:19:01.526Z,10.00
2023-04-25T14:21:48.106Z,9.60
2023-04-25T14:27:15.547Z,8.90
2023-04-25T14:29:43.974Z,8.70
2023-04-25T14:32:13.695Z,8.50
2023-04-25T14:34:44.663Z,8.30
2023-04-25T14:37:13.088Z,8.00
2023-04-25T14:39:41.607Z,7.80
2023-04-25T14:42:09.965Z,7.40
2023-04-25T14:44:38.362Z,7.20
2023-04-25T14:47:07.204Z,7.20
2023-04-25T14:49:37.589Z,7.30
2023-04-25T14:52:06.321Z,7.30
2023-04-25T14:54:34.593Z,7.40
2023-04-25T14:57:03.297Z,7.60
2023-04-25T14:59:31.808Z,7.90
2023-04-25T15:02:00.335Z,8.10
2023-04-25T15:04:28.757Z,8.30
2023-04-25T15:06:59.038Z,8.30
2023-04-25T15:09:27.568Z,8.40
2023-04-25T15:11:56.299Z,8.30
2023-04-25T15:14:24.626Z,8.30
2023-04-25T15:16:52.973Z,8.30
2023-04-25T15:19:21.279Z,8.40
2023-04-25T15:21:52.729Z,8.60
2023-04-25T15:24:23.227Z,8.70
2023-04-25T15:26:51.789Z,8.80
2023-04-25T15:29:20.288Z,8.80
2023-04-25T15:31:48.764Z,8.70
2023-04-25T15:34:23.592Z,8.60
2023-04-25T15:36:54.179Z,8.40
2023-04-25T15:39:27.062Z,8.30
2023-04-25T15:41:56.577Z,8.20
2023-04-25T15:44:25.102Z,8.10
2023-04-25T15:46:55.156Z,8.00
2023-04-25T15:49:28.774Z,7.90
2023-04-25T15:51:57.393Z,7.70
2023-04-25T15:54:30.448Z,7.50
2023-04-25T15:56:58.997Z,7.50
2023-04-25T15:59:27.556Z,7.60
2023-04-25T16:01:57.482Z,8.80
2023-04-25T16:04:27.754Z,10.80
2023-04-25T16:06:56.362Z,11.40
2023-04-25T16:09:24.825Z,11.30
2023-04-25T16:11:54.801Z,10.20
2023-04-25T16:14:23.171Z,9.30
2023-04-25T16:16:52.083Z,8.80
2023-04-25T16:19:21.052Z,8.40
2023-04-25T16:21:55.778Z,8.30
2023-04-25T16:24:27.872Z,8.20
2023-04-25T16:26:57.682Z,8.20
2023-04-25T16:29:26.010Z,8.20
2023-04-25T16:31:54.629Z,8.20
2023-04-25T16:34:23.714Z,8.20
2023-04-25T16:36:59.201Z,8.10
2023-04-25T16:39:30.901Z,8.00
2023-04-25T16:42:03.471Z,7.80
2023-04-25T16:44:33.500Z,7.80
2023-04-25T16:47:02.827Z,7.80
2023-04-25T16:49:31.656Z,7.80
2023-04-25T16:52:08.313Z,7.80
2023-04-25T16:54:39.730Z,7.70
2023-04-25T16:57:11.268Z,7.70
2023-04-25T16:59:39.860Z,7.70
2023-04-25T17:02:10.203Z,7.70
2023-04-25T17:04:39.015Z,7.80
2023-04-25T17:07:08.323Z,7.70
2023-04-25T17:09:43.677Z,7.60
2023-04-25T17:12:14.697Z,7.50
2023-04-25T17:14:56.240Z,7.50
2023-04-25T17:17:26.244Z,7.40
2023-04-25T17:19:54.968Z,7.40
2023-04-25T17:22:24.698Z,7.30
2023-04-25T17:24:55.852Z,7.30
2023-04-25T17:27:28.269Z,7.20
2023-04-25T17:29:59.769Z,7.20
2023-04-25T17:32:35.414Z,7.20
2023-04-25T17:35:04.029Z,7.20
2023-04-25T17:37:36.213Z,7.20
2023-04-25T17:40:16.388Z,7.20
2023-04-25T17:42:50.641Z,7.20
2023-04-25T17:45:25.313Z,7.10
2023-04-25T17:47:59.831Z,7.10
2023-04-25T17:50:32.456Z,7.00
2023-04-25T17:53:03.397Z,6.90
2023-04-25T17:55:32.490Z,6.80
2023-04-25T17:58:07.749Z,6.60
2023-04-25T18:01:11.662Z,6.50
2023-04-25T18:04:00.030Z,6.40
2023-04-25T18:06:35.801Z,6.40
2023-04-25T18:09:32.900Z,6.30
2023-04-25T18:12:09.285Z,6.30
2023-04-25T18:14:39.904Z,6.20
2023-04-25T18:17:25.936Z,6.10
2023-04-25T18:20:08.894Z,5.90
2023-04-25T18:22:43.446Z,5.80
2023-04-25T18:25:32.409Z,5.70
2023-04-25T18:28:01.013Z,5.60
2023-04-25T18:30:31.003Z,5.50
2023-04-25T18:32:59.393Z,5.40
2023-04-25T18:35:28.013Z,5.30
2023-04-25T18:37:56.378Z,5.20
2023-04-25T18:40:24.821Z,5.10
2023-04-25T18:42:53.336Z,5.00
2023-04-25T18:45:21.695Z,4.90
2023-04-25T18:47:55.862Z,4.80
2023-04-25T18:50:28.267Z,4.70
2023-04-25T18:52:59.771Z,4.60
2023-04-25T18:55:28.865Z,4.60
2023-04-25T18:58:05.117Z,4.60
2023-04-25T19:00:36.374Z,4.50
2023-04-25T19:03:12.796Z,4.40
2023-04-25T19:05:41.325Z,4.30
2023-04-25T19:08:10.540Z,4.20
2023-04-25T19:10:39.032Z,4.20
2023-04-25T19:13:08.724Z,4.20
2023-04-25T19:15:46.073Z,4.10
2023-04-25T19:18:16.205Z,4.00
2023-04-25T19:20:47.721Z,4.00
2023-04-25T19:23:16.283Z,3.90
2023-04-25T19:25:44.714Z,3.80
2023-04-25T19:28:19.182Z,3.70
2023-04-25T19:30:53.976Z,3.60
2023-04-25T19:33:23.991Z,3.50
2023-04-25T19:35:52.935Z,3.40
2023-04-25T19:38:24.478Z,3.40
2023-04-25T19:40:52.949Z,3.30
2023-04-25T19:43:23.670Z,3.30
2023-04-25T19:45:56.652Z,3.30
2023-04-25T19:48:31.816Z,3.20
2023-04-25T19:51:00.629Z,3.20
2023-04-25T19:53:29.102Z,3.10
2023-04-25T19:55:57.563Z,3.00
2023-04-25T19:58:26.234Z,3.00
2023-04-25T20:00:56.070Z,3.00
2023-04-25T20:03:26.884Z,3.00
2023-04-25T20:05:56.317Z,3.00
2023-04-25T20:08:35.713Z,2.90
2023-04-25T20:11:13.825Z,2.80
2023-04-25T20:13:42.446Z,2.80
2023-04-25T20:16:11.099Z,2.80
2023-04-25T20:18:47.504Z,2.70
2023-04-25T20:21:24.931Z,2.70
2023-04-25T20:23:54.613Z,2.70
2023-04-25T20:26:30.860Z,2.60
2023-04-25T20:29:12.336Z,2.80
2023-04-25T20:31:44.648Z,2.80
2023-04-25T20:34:14.833Z,2.80
2023-04-25T20:37:10.925Z,2.90
2023-04-25T20:45:13.123Z,3.00
2023-04-25T20:51:09.323Z,3.10
2023-04-25T20:53:38.239Z,3.10
2023-04-25T21:02:15.011Z,3.00
2023-04-25T21:04:55.654Z,3.00
2023-04-25T21:08:13.816Z,3.10
2023-04-25T21:10:47.211Z,3.20
2023-04-25T21:19:19.646Z,3.20
2023-04-25T21:21:52.361Z,3.00
2023-04-25T21:24:34.409Z,2.90
2023-04-25T21:27:38.666Z,2.90
2023-04-25T21:41:12.803Z,2.80
2023-04-25T21:54:39.171Z,2.70
2023-04-25T22:11:26.500Z,2.80
2023-04-25T22:13:55.097Z,2.70
2023-04-25T22:16:23.526Z,2.50
2023-04-25T22:18:53.482Z,2.50
2023-04-25T22:25:24.000Z,2.40
2023-04-25T22:27:55.494Z,2.30
2023-04-25T22:30:24.343Z,2.30
2023-04-25T22:32:53.077Z,2.30
2023-04-25T22:35:21.618Z,2.30
2023-04-25T22:37:50.409Z,2.30
2023-04-25T22:40:19.438Z,2.30
2023-04-25T22:42:47.981Z,2.20
